sensor_id;sensor_type;location;lat;lon;timestamp;temperature;humidity
27848;DHT22;15212;48.830;8.730;2022-09-09T00:04:45;14.70;99.90
27848;DHT22;15212;48.830;8.730;2022-09-09T00:07:24;14.80;99.90
27848;DHT22;15212;48.830;8.730;2022-09-09T00:10:03;14.80;99.90
27848;DHT22;15212;48.830;8.730;2022-09-09T00:12:41;14.80;99.90
27848;DHT22;15212;48.830;8.730;2022-09-09T00:18:35;15.10;99.90
27848;DHT22;15212;48.830;8.730;2022-09-09T00:21:18;15.30;99.90
27848;DHT22;15212;48.830;8.730;2022-09-09T00:23:50;15.40;99.90
27848;DHT22;15212;48.830;8.730;2022-09-09T00:26:45;15.50;99.90
27848;DHT22;15212;48.830;8.730;2022-09-09T00:29:28;15.50;99.90
27848;DHT22;15212;48.830;8.730;2022-09-09T00:32:11;15.60;99.90
27848;DHT22;15212;48.830;8.730;2022-09-09T00:34:39;15.50;99.90
27848;DHT22;15212;48.830;8.730;2022-09-09T00:37:12;15.50;99.90
27848;DHT22;15212;48.830;8.730;2022-09-09T00:39:44;15.50;99.90
27848;DHT22;15212;48.830;8.730;2022-09-09T00:42:20;15.50;99.90
27848;DHT22;15212;48.830;8.730;2022-09-09T00:47:43;15.40;99.90
27848;DHT22;15212;48.830;8.730;2022-09-09T00:53:35;15.40;99.90
27848;DHT22;15212;48.830;8.730;2022-09-09T00:56:16;15.40;99.90
27848;DHT22;15212;48.830;8.730;2022-09-09T00:59:07;15.50;99.90
27848;DHT22;15212;48.830;8.730;2022-09-09T01:01:44;15.50;99.90
27848;DHT22;15212;48.830;8.730;2022-09-09T01:04:16;15.50;99.90
27848;DHT22;15212;48.830;8.730;2022-09-09T01:06:49;15.60;99.90
27848;DHT22;15212;48.830;8.730;2022-09-09T01:09:27;15.60;99.90
27848;DHT22;15212;48.830;8.730;2022-09-09T01:12:15;15.70;99.90
27848;DHT22;15212;48.830;8.730;2022-09-09T01:14:50;15.70;99.90
27848;DHT22;15212;48.830;8.730;2022-09-09T01:26:35;15.80;99.90
27848;DHT22;15212;48.830;8.730;2022-09-09T01:29:16;15.90;99.90
27848;DHT22;15212;48.830;8.730;2022-09-09T01:32:35;16.00;99.90
27848;DHT22;15212;48.830;8.730;2022-09-09T01:34:50;16.00;99.90
27848;DHT22;15212;48.830;8.730;2022-09-09T01:37:19;16.10;99.90
27848;DHT22;15212;48.830;8.730;2022-09-09T01:39:47;16.00;99.90
27848;DHT22;15212;48.830;8.730;2022-09-09T01:42:16;15.90;99.90
27848;DHT22;15212;48.830;8.730;2022-09-09T01:44:45;15.70;99.90
27848;DHT22;15212;48.830;8.730;2022-09-09T01:47:15;15.50;99.90
27848;DHT22;15212;48.830;8.730;2022-09-09T01:49:44;15.40;99.90
27848;DHT22;15212;48.830;8.730;2022-09-09T01:52:12;15.30;99.90
27848;DHT22;15212;48.830;8.730;2022-09-09T01:54:40;15.20;99.90
27848;DHT22;15212;48.830;8.730;2022-09-09T01:57:27;15.00;99.90
27848;DHT22;15212;48.830;8.730;2022-09-09T02:00:15;15.00;99.90
27848;DHT22;15212;48.830;8.730;2022-09-09T02:05:39;14.80;99.90
27848;DHT22;15212;48.830;8.730;2022-09-09T02:08:31;14.70;99.90
27848;DHT22;15212;48.830;8.730;2022-09-09T02:11:14;14.60;99.90
27848;DHT22;15212;48.830;8.730;2022-09-09T02:13:46;14.60;99.90
27848;DHT22;15212;48.830;8.730;2022-09-09T02:16:37;14.60;99.90
27848;DHT22;15212;48.830;8.730;2022-09-09T02:19:17;14.50;99.90
27848;DHT22;15212;48.830;8.730;2022-09-09T02:21:56;14.50;99.90
27848;DHT22;15212;48.830;8.730;2022-09-09T02:24:28;14.50;99.90
27848;DHT22;15212;48.830;8.730;2022-09-09T02:27:01;14.50;99.90
27848;DHT22;15212;48.830;8.730;2022-09-09T02:29:38;14.50;99.90
27848;DHT22;15212;48.830;8.730;2022-09-09T02:32:11;14.50;99.90
27848;DHT22;15212;48.830;8.730;2022-09-09T02:34:43;14.50;99.90
27848;DHT22;15212;48.830;8.730;2022-09-09T02:37:17;14.40;99.90
27848;DHT22;15212;48.830;8.730;2022-09-09T02:39:46;14.50;99.90
27848;DHT22;15212;48.830;8.730;2022-09-09T02:42:15;14.50;99.90
27848;DHT22;15212;48.830;8.730;2022-09-09T02:44:44;14.40;99.90
27848;DHT22;15212;48.830;8.730;2022-09-09T02:47:32;14.40;99.90
27848;DHT22;15212;48.830;8.730;2022-09-09T02:50:22;14.30;99.90
27848;DHT22;15212;48.830;8.730;2022-09-09T02:53:15;14.30;99.90
27848;DHT22;15212;48.830;8.730;2022-09-09T02:55:49;14.30;99.90
27848;DHT22;15212;48.830;8.730;2022-09-09T02:58:21;14.20;99.90
27848;DHT22;15212;48.830;8.730;2022-09-09T03:00:51;14.10;99.90
27848;DHT22;15212;48.830;8.730;2022-09-09T03:03:20;14.10;99.90
27848;DHT22;15212;48.830;8.730;2022-09-09T03:05:48;14.00;99.90
27848;DHT22;15212;48.830;8.730;2022-09-09T03:08:17;14.00;99.90
27848;DHT22;15212;48.830;8.730;2022-09-09T03:10:45;14.00;99.90
27848;DHT22;15212;48.830;8.730;2022-09-09T03:13:13;13.90;99.90
27848;DHT22;15212;48.830;8.730;2022-09-09T03:15:42;13.80;99.90
27848;DHT22;15212;48.830;8.730;2022-09-09T03:18:10;13.80;99.90
27848;DHT22;15212;48.830;8.730;2022-09-09T03:20:39;13.70;99.90
27848;DHT22;15212;48.830;8.730;2022-09-09T03:23:08;13.70;99.90
27848;DHT22;15212;48.830;8.730;2022-09-09T03:25:37;13.70;99.90
27848;DHT22;15212;48.830;8.730;2022-09-09T03:28:05;13.60;99.90
27848;DHT22;15212;48.830;8.730;2022-09-09T03:30:34;13.60;99.90
27848;DHT22;15212;48.830;8.730;2022-09-09T03:33:02;13.60;99.90
27848;DHT22;15212;48.830;8.730;2022-09-09T03:35:30;13.50;99.90
27848;DHT22;15212;48.830;8.730;2022-09-09T03:37:59;13.50;99.90
27848;DHT22;15212;48.830;8.730;2022-09-09T03:40:27;13.50;99.90
27848;DHT22;15212;48.830;8.730;2022-09-09T03:42:57;13.40;99.90
27848;DHT22;15212;48.830;8.730;2022-09-09T03:45:26;13.40;99.90
27848;DHT22;15212;48.830;8.730;2022-09-09T03:47:54;13.30;99.90
27848;DHT22;15212;48.830;8.730;2022-09-09T03:50:23;13.30;99.90
27848;DHT22;15212;48.830;8.730;2022-09-09T03:52:52;13.30;99.90
27848;DHT22;15212;48.830;8.730;2022-09-09T03:55:20;13.20;99.90
27848;DHT22;15212;48.830;8.730;2022-09-09T03:57:48;13.20;99.90
27848;DHT22;15212;48.830;8.730;2022-09-09T04:00:17;13.20;99.90
27848;DHT22;15212;48.830;8.730;2022-09-09T04:02:45;13.30;99.90
27848;DHT22;15212;48.830;8.730;2022-09-09T04:05:13;13.30;99.90
27848;DHT22;15212;48.830;8.730;2022-09-09T04:07:42;13.40;99.90
27848;DHT22;15212;48.830;8.730;2022-09-09T04:10:10;13.50;99.90
27848;DHT22;15212;48.830;8.730;2022-09-09T04:12:39;13.60;99.90
27848;DHT22;15212;48.830;8.730;2022-09-09T04:15:08;13.70;99.90
27848;DHT22;15212;48.830;8.730;2022-09-09T04:17:37;13.80;99.90
27848;DHT22;15212;48.830;8.730;2022-09-09T04:20:05;13.80;99.90
27848;DHT22;15212;48.830;8.730;2022-09-09T04:22:35;13.80;99.90
27848;DHT22;15212;48.830;8.730;2022-09-09T04:25:06;13.80;99.90
27848;DHT22;15212;48.830;8.730;2022-09-09T04:27:34;13.80;99.90
27848;DHT22;15212;48.830;8.730;2022-09-09T04:30:03;13.80;99.90
27848;DHT22;15212;48.830;8.730;2022-09-09T04:32:34;13.70;99.90
27848;DHT22;15212;48.830;8.730;2022-09-09T04:35:03;13.70;99.90
27848;DHT22;15212;48.830;8.730;2022-09-09T04:37:32;13.60;99.90
27848;DHT22;15212;48.830;8.730;2022-09-09T04:40:00;13.50;99.90
27848;DHT22;15212;48.830;8.730;2022-09-09T04:42:29;13.50;99.90
27848;DHT22;15212;48.830;8.730;2022-09-09T04:44:57;13.40;99.90
27848;DHT22;15212;48.830;8.730;2022-09-09T04:47:25;13.40;99.90
27848;DHT22;15212;48.830;8.730;2022-09-09T04:49:54;13.30;99.90
27848;DHT22;15212;48.830;8.730;2022-09-09T04:52:23;13.40;99.90
27848;DHT22;15212;48.830;8.730;2022-09-09T04:54:51;13.30;99.90
27848;DHT22;15212;48.830;8.730;2022-09-09T04:57:20;13.30;99.90
27848;DHT22;15212;48.830;8.730;2022-09-09T04:59:49;13.40;99.90
27848;DHT22;15212;48.830;8.730;2022-09-09T05:02:17;13.40;99.90
27848;DHT22;15212;48.830;8.730;2022-09-09T05:04:45;13.40;99.90
27848;DHT22;15212;48.830;8.730;2022-09-09T05:07:16;13.40;99.90
27848;DHT22;15212;48.830;8.730;2022-09-09T05:09:45;13.40;99.90
27848;DHT22;15212;48.830;8.730;2022-09-09T05:12:16;13.40;99.90
27848;DHT22;15212;48.830;8.730;2022-09-09T05:14:44;13.50;99.90
27848;DHT22;15212;48.830;8.730;2022-09-09T05:17:13;13.50;99.90
27848;DHT22;15212;48.830;8.730;2022-09-09T05:19:42;13.50;99.90
27848;DHT22;15212;48.830;8.730;2022-09-09T05:22:11;13.50;99.90
27848;DHT22;15212;48.830;8.730;2022-09-09T05:24:39;13.60;99.90
27848;DHT22;15212;48.830;8.730;2022-09-09T05:27:08;13.60;99.90
27848;DHT22;15212;48.830;8.730;2022-09-09T05:29:39;13.70;99.90
27848;DHT22;15212;48.830;8.730;2022-09-09T05:32:09;13.70;99.90
27848;DHT22;15212;48.830;8.730;2022-09-09T05:34:37;13.80;99.90
27848;DHT22;15212;48.830;8.730;2022-09-09T05:37:05;13.80;99.90
27848;DHT22;15212;48.830;8.730;2022-09-09T05:39:34;13.90;99.90
27848;DHT22;15212;48.830;8.730;2022-09-09T05:42:03;13.90;99.90
27848;DHT22;15212;48.830;8.730;2022-09-09T05:44:32;14.00;99.90
27848;DHT22;15212;48.830;8.730;2022-09-09T05:47:01;14.10;99.90
27848;DHT22;15212;48.830;8.730;2022-09-09T05:49:29;14.10;99.90
27848;DHT22;15212;48.830;8.730;2022-09-09T05:51:58;14.10;99.90
27848;DHT22;15212;48.830;8.730;2022-09-09T05:54:26;14.20;99.90
27848;DHT22;15212;48.830;8.730;2022-09-09T05:56:55;14.20;99.90
27848;DHT22;15212;48.830;8.730;2022-09-09T05:59:23;14.30;99.90
27848;DHT22;15212;48.830;8.730;2022-09-09T06:01:52;14.30;99.90
27848;DHT22;15212;48.830;8.730;2022-09-09T06:04:20;14.30;99.90
27848;DHT22;15212;48.830;8.730;2022-09-09T06:06:50;14.40;99.90
27848;DHT22;15212;48.830;8.730;2022-09-09T06:09:19;14.50;99.90
27848;DHT22;15212;48.830;8.730;2022-09-09T06:11:47;14.60;99.90
27848;DHT22;15212;48.830;8.730;2022-09-09T06:14:15;14.60;99.90
27848;DHT22;15212;48.830;8.730;2022-09-09T06:16:45;14.70;99.90
27848;DHT22;15212;48.830;8.730;2022-09-09T06:19:14;14.80;99.90
27848;DHT22;15212;48.830;8.730;2022-09-09T06:21:42;14.80;99.90
27848;DHT22;15212;48.830;8.730;2022-09-09T06:24:11;14.80;99.90
27848;DHT22;15212;48.830;8.730;2022-09-09T06:26:41;14.90;99.90
27848;DHT22;15212;48.830;8.730;2022-09-09T06:29:09;15.00;99.90
27848;DHT22;15212;48.830;8.730;2022-09-09T06:31:38;15.10;99.90
27848;DHT22;15212;48.830;8.730;2022-09-09T06:34:08;15.20;99.90
27848;DHT22;15212;48.830;8.730;2022-09-09T06:36:38;15.30;99.90
27848;DHT22;15212;48.830;8.730;2022-09-09T06:39:07;15.40;99.90
27848;DHT22;15212;48.830;8.730;2022-09-09T06:41:37;15.50;99.90
27848;DHT22;15212;48.830;8.730;2022-09-09T06:44:06;15.60;99.90
27848;DHT22;15212;48.830;8.730;2022-09-09T06:46:34;15.70;99.90
27848;DHT22;15212;48.830;8.730;2022-09-09T06:49:03;15.80;99.90
27848;DHT22;15212;48.830;8.730;2022-09-09T06:51:34;15.80;99.90
27848;DHT22;15212;48.830;8.730;2022-09-09T06:54:04;15.90;99.90
27848;DHT22;15212;48.830;8.730;2022-09-09T06:56:35;16.10;99.90
27848;DHT22;15212;48.830;8.730;2022-09-09T06:59:07;16.20;99.90
27848;DHT22;15212;48.830;8.730;2022-09-09T07:01:38;16.40;99.90
27848;DHT22;15212;48.830;8.730;2022-09-09T07:04:07;16.40;99.90
27848;DHT22;15212;48.830;8.730;2022-09-09T07:06:42;16.50;99.90
27848;DHT22;15212;48.830;8.730;2022-09-09T07:09:14;16.70;99.90
27848;DHT22;15212;48.830;8.730;2022-09-09T07:11:48;16.80;99.90
27848;DHT22;15212;48.830;8.730;2022-09-09T07:14:19;16.90;99.90
27848;DHT22;15212;48.830;8.730;2022-09-09T07:16:48;17.00;99.90
27848;DHT22;15212;48.830;8.730;2022-09-09T07:19:17;16.90;99.90
27848;DHT22;15212;48.830;8.730;2022-09-09T07:21:45;17.00;99.90
27848;DHT22;15212;48.830;8.730;2022-09-09T07:24:14;17.10;99.90
27848;DHT22;15212;48.830;8.730;2022-09-09T07:26:42;17.10;99.90
27848;DHT22;15212;48.830;8.730;2022-09-09T07:29:12;17.10;99.90
27848;DHT22;15212;48.830;8.730;2022-09-09T07:31:40;17.10;99.90
27848;DHT22;15212;48.830;8.730;2022-09-09T07:34:09;17.00;99.90
27848;DHT22;15212;48.830;8.730;2022-09-09T07:36:39;17.00;99.90
27848;DHT22;15212;48.830;8.730;2022-09-09T07:39:12;16.90;99.90
27848;DHT22;15212;48.830;8.730;2022-09-09T07:41:46;16.90;99.90
27848;DHT22;15212;48.830;8.730;2022-09-09T07:44:18;17.20;99.90
27848;DHT22;15212;48.830;8.730;2022-09-09T07:46:48;17.50;99.90
27848;DHT22;15212;48.830;8.730;2022-09-09T07:49:16;17.60;99.90
27848;DHT22;15212;48.830;8.730;2022-09-09T07:51:46;17.60;99.90
27848;DHT22;15212;48.830;8.730;2022-09-09T07:54:17;17.50;99.90
27848;DHT22;15212;48.830;8.730;2022-09-09T07:56:48;17.70;99.90
27848;DHT22;15212;48.830;8.730;2022-09-09T07:59:16;18.00;99.90
27848;DHT22;15212;48.830;8.730;2022-09-09T08:01:48;18.30;99.90
27848;DHT22;15212;48.830;8.730;2022-09-09T08:04:20;18.50;99.90
27848;DHT22;15212;48.830;8.730;2022-09-09T08:06:58;18.80;99.90
27848;DHT22;15212;48.830;8.730;2022-09-09T08:09:24;18.90;99.90
27848;DHT22;15212;48.830;8.730;2022-09-09T08:11:56;19.00;99.90
27848;DHT22;15212;48.830;8.730;2022-09-09T08:14:24;18.90;99.90
27848;DHT22;15212;48.830;8.730;2022-09-09T08:16:53;18.80;99.90
27848;DHT22;15212;48.830;8.730;2022-09-09T08:19:22;18.60;99.90
27848;DHT22;15212;48.830;8.730;2022-09-09T08:21:51;18.30;99.90
27848;DHT22;15212;48.830;8.730;2022-09-09T08:24:20;18.10;99.90
27848;DHT22;15212;48.830;8.730;2022-09-09T08:26:49;17.90;99.90
27848;DHT22;15212;48.830;8.730;2022-09-09T08:29:18;17.70;99.90
27848;DHT22;15212;48.830;8.730;2022-09-09T08:31:51;17.80;99.90
27848;DHT22;15212;48.830;8.730;2022-09-09T08:34:25;17.80;99.90
27848;DHT22;15212;48.830;8.730;2022-09-09T08:36:54;18.00;99.90
27848;DHT22;15212;48.830;8.730;2022-09-09T08:39:23;18.20;99.90
27848;DHT22;15212;48.830;8.730;2022-09-09T08:42:21;18.40;99.90
27848;DHT22;15212;48.830;8.730;2022-09-09T08:45:14;18.60;99.90
27848;DHT22;15212;48.830;8.730;2022-09-09T08:50:48;18.80;99.90
27848;DHT22;15212;48.830;8.730;2022-09-09T08:53:23;18.90;99.90
27848;DHT22;15212;48.830;8.730;2022-09-09T08:56:00;19.00;99.90
27848;DHT22;15212;48.830;8.730;2022-09-09T08:58:47;19.20;99.90
27848;DHT22;15212;48.830;8.730;2022-09-09T09:07:18;19.60;99.90
27848;DHT22;15212;48.830;8.730;2022-09-09T09:10:04;19.70;99.90
27848;DHT22;15212;48.830;8.730;2022-09-09T09:12:41;19.80;99.90
27848;DHT22;15212;48.830;8.730;2022-09-09T09:15:19;19.90;99.90
27848;DHT22;15212;48.830;8.730;2022-09-09T09:17:54;20.10;99.90
27848;DHT22;15212;48.830;8.730;2022-09-09T09:20:47;20.20;99.90
27848;DHT22;15212;48.830;8.730;2022-09-09T09:23:16;20.40;99.90
27848;DHT22;15212;48.830;8.730;2022-09-09T09:25:55;20.40;99.90
27848;DHT22;15212;48.830;8.730;2022-09-09T09:28:29;20.50;99.90
27848;DHT22;15212;48.830;8.730;2022-09-09T09:31:05;20.50;99.90
27848;DHT22;15212;48.830;8.730;2022-09-09T09:33:40;20.50;99.90
27848;DHT22;15212;48.830;8.730;2022-09-09T09:36:14;20.20;99.90
27848;DHT22;15212;48.830;8.730;2022-09-09T09:38:57;19.90;99.90
27848;DHT22;15212;48.830;8.730;2022-09-09T09:41:34;19.50;99.90
27848;DHT22;15212;48.830;8.730;2022-09-09T09:44:06;19.20;99.90
27848;DHT22;15212;48.830;8.730;2022-09-09T09:47:14;19.10;99.90
27848;DHT22;15212;48.830;8.730;2022-09-09T09:49:50;18.90;99.90
27848;DHT22;15212;48.830;8.730;2022-09-09T09:52:24;18.80;99.90
27848;DHT22;15212;48.830;8.730;2022-09-09T09:54:58;18.70;99.90
27848;DHT22;15212;48.830;8.730;2022-09-09T09:57:29;18.70;99.90
27848;DHT22;15212;48.830;8.730;2022-09-09T10:00:17;18.60;99.90
27848;DHT22;15212;48.830;8.730;2022-09-09T10:02:47;18.50;99.90
27848;DHT22;15212;48.830;8.730;2022-09-09T10:05:23;18.50;99.90
27848;DHT22;15212;48.830;8.730;2022-09-09T10:08:11;18.40;99.90
27848;DHT22;15212;48.830;8.730;2022-09-09T10:16:45;18.90;99.90
27848;DHT22;15212;48.830;8.730;2022-09-09T10:19:32;18.90;99.90
27848;DHT22;15212;48.830;8.730;2022-09-09T10:22:28;18.70;99.90
27848;DHT22;15212;48.830;8.730;2022-09-09T10:33:59;17.50;99.90
27848;DHT22;15212;48.830;8.730;2022-09-09T10:36:34;17.30;99.90
27848;DHT22;15212;48.830;8.730;2022-09-09T10:42:13;17.00;99.90
27848;DHT22;15212;48.830;8.730;2022-09-09T10:44:52;16.80;99.90
27848;DHT22;15212;48.830;8.730;2022-09-09T10:50:43;16.20;99.90
27848;DHT22;15212;48.830;8.730;2022-09-09T10:53:28;15.80;99.90
27848;DHT22;15212;48.830;8.730;2022-09-09T10:56:15;15.70;99.90
27848;DHT22;15212;48.830;8.730;2022-09-09T10:58:53;15.50;99.90
27848;DHT22;15212;48.830;8.730;2022-09-09T11:01:30;15.40;99.90
27848;DHT22;15212;48.830;8.730;2022-09-09T11:04:10;15.20;99.90
27848;DHT22;15212;48.830;8.730;2022-09-09T11:06:41;15.10;99.90
27848;DHT22;15212;48.830;8.730;2022-09-09T11:09:17;15.10;99.90
27848;DHT22;15212;48.830;8.730;2022-09-09T11:11:49;15.10;99.90
27848;DHT22;15212;48.830;8.730;2022-09-09T11:14:39;15.10;99.90
27848;DHT22;15212;48.830;8.730;2022-09-09T11:17:26;14.90;99.90
27848;DHT22;15212;48.830;8.730;2022-09-09T11:19:56;14.70;99.90
27848;DHT22;15212;48.830;8.730;2022-09-09T11:22:30;14.70;99.90
27848;DHT22;15212;48.830;8.730;2022-09-09T11:25:08;14.70;99.90
27848;DHT22;15212;48.830;8.730;2022-09-09T11:34:29;14.90;99.90
27848;DHT22;15212;48.830;8.730;2022-09-09T11:37:11;15.10;99.90
27848;DHT22;15212;48.830;8.730;2022-09-09T11:40:15;15.40;99.90
27848;DHT22;15212;48.830;8.730;2022-09-09T11:42:48;15.70;99.90
27848;DHT22;15212;48.830;8.730;2022-09-09T11:45:25;15.90;99.90
27848;DHT22;15212;48.830;8.730;2022-09-09T11:47:57;16.20;99.90
27848;DHT22;15212;48.830;8.730;2022-09-09T11:50:30;16.40;99.90
27848;DHT22;15212;48.830;8.730;2022-09-09T11:53:26;16.60;99.90
27848;DHT22;15212;48.830;8.730;2022-09-09T11:55:41;17.00;99.90
27848;DHT22;15212;48.830;8.730;2022-09-09T12:00:48;17.50;99.90
27848;DHT22;15212;48.830;8.730;2022-09-09T12:03:40;17.70;99.90
27848;DHT22;15212;48.830;8.730;2022-09-09T12:09:08;17.90;99.90
27848;DHT22;15212;48.830;8.730;2022-09-09T12:11:39;17.90;99.90
27848;DHT22;15212;48.830;8.730;2022-09-09T12:14:21;18.00;99.90
27848;DHT22;15212;48.830;8.730;2022-09-09T12:16:51;18.10;99.90
27848;DHT22;15212;48.830;8.730;2022-09-09T12:19:21;18.10;99.90
27848;DHT22;15212;48.830;8.730;2022-09-09T12:22:03;18.10;99.90
27848;DHT22;15212;48.830;8.730;2022-09-09T12:24:50;18.20;99.90
27848;DHT22;15212;48.830;8.730;2022-09-09T12:27:27;18.30;99.90
27848;DHT22;15212;48.830;8.730;2022-09-09T12:30:08;18.40;99.90
27848;DHT22;15212;48.830;8.730;2022-09-09T12:32:31;18.60;99.90
27848;DHT22;15212;48.830;8.730;2022-09-09T12:37:58;18.60;99.90
27848;DHT22;15212;48.830;8.730;2022-09-09T12:40:29;18.70;99.90
27848;DHT22;15212;48.830;8.730;2022-09-09T12:43:01;18.70;99.90
27848;DHT22;15212;48.830;8.730;2022-09-09T12:45:33;18.70;99.90
27848;DHT22;15212;48.830;8.730;2022-09-09T12:48:10;18.80;99.90
27848;DHT22;15212;48.830;8.730;2022-09-09T12:50:43;18.90;99.90
27848;DHT22;15212;48.830;8.730;2022-09-09T12:53:32;18.80;99.90
27848;DHT22;15212;48.830;8.730;2022-09-09T12:56:04;18.90;99.90
27848;DHT22;15212;48.830;8.730;2022-09-09T12:58:36;19.00;99.90
27848;DHT22;15212;48.830;8.730;2022-09-09T13:01:17;19.00;99.90
27848;DHT22;15212;48.830;8.730;2022-09-09T13:03:43;19.20;99.90
27848;DHT22;15212;48.830;8.730;2022-09-09T13:06:16;19.20;99.90
27848;DHT22;15212;48.830;8.730;2022-09-09T13:08:51;19.20;99.90
27848;DHT22;15212;48.830;8.730;2022-09-09T13:11:37;19.30;99.90
27848;DHT22;15212;48.830;8.730;2022-09-09T13:14:17;19.30;99.90
27848;DHT22;15212;48.830;8.730;2022-09-09T13:17:00;19.30;99.90
27848;DHT22;15212;48.830;8.730;2022-09-09T13:19:37;19.30;99.90
27848;DHT22;15212;48.830;8.730;2022-09-09T13:22:14;19.30;99.90
27848;DHT22;15212;48.830;8.730;2022-09-09T13:25:05;19.30;99.90
27848;DHT22;15212;48.830;8.730;2022-09-09T13:27:40;19.50;99.90
27848;DHT22;15212;48.830;8.730;2022-09-09T13:30:24;19.60;99.90
27848;DHT22;15212;48.830;8.730;2022-09-09T13:35:53;19.70;99.90
27848;DHT22;15212;48.830;8.730;2022-09-09T13:41:42;19.70;99.90
27848;DHT22;15212;48.830;8.730;2022-09-09T13:44:22;19.90;99.90
27848;DHT22;15212;48.830;8.730;2022-09-09T13:49:47;20.30;99.90
27848;DHT22;15212;48.830;8.730;2022-09-09T13:52:18;20.30;99.90
27848;DHT22;15212;48.830;8.730;2022-09-09T13:54:51;20.30;99.90
27848;DHT22;15212;48.830;8.730;2022-09-09T13:57:22;20.20;99.90
27848;DHT22;15212;48.830;8.730;2022-09-09T13:59:53;20.00;99.90
27848;DHT22;15212;48.830;8.730;2022-09-09T14:02:22;20.00;99.90
27848;DHT22;15212;48.830;8.730;2022-09-09T14:04:51;20.00;99.90
27848;DHT22;15212;48.830;8.730;2022-09-09T14:07:21;20.00;99.90
27848;DHT22;15212;48.830;8.730;2022-09-09T14:09:50;20.10;99.90
27848;DHT22;15212;48.830;8.730;2022-09-09T14:12:18;20.20;99.90
27848;DHT22;15212;48.830;8.730;2022-09-09T14:14:47;20.30;99.90
27848;DHT22;15212;48.830;8.730;2022-09-09T14:17:16;20.50;99.90
27848;DHT22;15212;48.830;8.730;2022-09-09T14:19:44;20.70;99.90
27848;DHT22;15212;48.830;8.730;2022-09-09T14:22:13;20.70;99.90
27848;DHT22;15212;48.830;8.730;2022-09-09T14:24:42;20.70;99.90
27848;DHT22;15212;48.830;8.730;2022-09-09T14:27:10;20.60;99.90
27848;DHT22;15212;48.830;8.730;2022-09-09T14:29:39;20.50;99.90
27848;DHT22;15212;48.830;8.730;2022-09-09T14:32:07;20.40;99.90
27848;DHT22;15212;48.830;8.730;2022-09-09T14:34:35;20.30;99.90
27848;DHT22;15212;48.830;8.730;2022-09-09T14:37:04;20.30;99.90
27848;DHT22;15212;48.830;8.730;2022-09-09T14:39:33;20.40;99.90
27848;DHT22;15212;48.830;8.730;2022-09-09T14:42:01;20.50;99.90
27848;DHT22;15212;48.830;8.730;2022-09-09T14:44:30;20.60;99.90
27848;DHT22;15212;48.830;8.730;2022-09-09T14:46:58;20.70;99.90
27848;DHT22;15212;48.830;8.730;2022-09-09T14:49:27;20.70;99.90
27848;DHT22;15212;48.830;8.730;2022-09-09T14:51:55;20.60;99.90
27848;DHT22;15212;48.830;8.730;2022-09-09T14:54:23;20.40;99.90
27848;DHT22;15212;48.830;8.730;2022-09-09T14:56:52;20.40;99.90
27848;DHT22;15212;48.830;8.730;2022-09-09T14:59:20;20.50;99.90
27848;DHT22;15212;48.830;8.730;2022-09-09T15:01:49;20.50;99.90
27848;DHT22;15212;48.830;8.730;2022-09-09T15:04:17;20.50;99.90
27848;DHT22;15212;48.830;8.730;2022-09-09T15:06:46;20.50;99.90
27848;DHT22;15212;48.830;8.730;2022-09-09T15:09:16;20.60;99.90
27848;DHT22;15212;48.830;8.730;2022-09-09T15:11:44;20.70;99.90
27848;DHT22;15212;48.830;8.730;2022-09-09T15:14:13;20.60;99.90
27848;DHT22;15212;48.830;8.730;2022-09-09T15:16:41;20.50;99.90
27848;DHT22;15212;48.830;8.730;2022-09-09T15:19:10;20.40;99.90
27848;DHT22;15212;48.830;8.730;2022-09-09T15:21:38;20.10;99.90
27848;DHT22;15212;48.830;8.730;2022-09-09T15:24:07;19.80;99.90
27848;DHT22;15212;48.830;8.730;2022-09-09T15:26:36;19.60;99.90
27848;DHT22;15212;48.830;8.730;2022-09-09T15:29:06;19.40;99.90
27848;DHT22;15212;48.830;8.730;2022-09-09T15:31:35;19.30;99.90
27848;DHT22;15212;48.830;8.730;2022-09-09T15:34:06;19.10;99.90
27848;DHT22;15212;48.830;8.730;2022-09-09T15:36:40;19.00;99.90
27848;DHT22;15212;48.830;8.730;2022-09-09T15:39:12;18.90;99.90
27848;DHT22;15212;48.830;8.730;2022-09-09T15:41:49;18.70;99.90
27848;DHT22;15212;48.830;8.730;2022-09-09T15:44:15;18.60;99.90
27848;DHT22;15212;48.830;8.730;2022-09-09T15:46:48;18.50;99.90
27848;DHT22;15212;48.830;8.730;2022-09-09T15:49:19;18.40;99.90
27848;DHT22;15212;48.830;8.730;2022-09-09T15:51:56;17.80;99.90
27848;DHT22;15212;48.830;8.730;2022-09-09T15:54:27;16.90;99.90
27848;DHT22;15212;48.830;8.730;2022-09-09T15:57:03;16.30;99.90
27848;DHT22;15212;48.830;8.730;2022-09-09T15:59:33;15.70;99.90
27848;DHT22;15212;48.830;8.730;2022-09-09T16:02:02;15.30;99.90
27848;DHT22;15212;48.830;8.730;2022-09-09T16:04:31;15.10;99.90
27848;DHT22;15212;48.830;8.730;2022-09-09T16:07:02;14.80;99.90
27848;DHT22;15212;48.830;8.730;2022-09-09T16:09:32;14.60;99.90
27848;DHT22;15212;48.830;8.730;2022-09-09T16:12:03;14.40;99.90
27848;DHT22;15212;48.830;8.730;2022-09-09T16:14:36;14.30;99.90
27848;DHT22;15212;48.830;8.730;2022-09-09T16:17:06;14.30;99.90
27848;DHT22;15212;48.830;8.730;2022-09-09T16:19:35;14.30;99.90
27848;DHT22;15212;48.830;8.730;2022-09-09T16:22:04;14.40;99.90
27848;DHT22;15212;48.830;8.730;2022-09-09T16:24:33;14.50;99.90
27848;DHT22;15212;48.830;8.730;2022-09-09T16:27:01;14.60;99.90
27848;DHT22;15212;48.830;8.730;2022-09-09T16:29:29;14.80;99.90
27848;DHT22;15212;48.830;8.730;2022-09-09T16:31:58;14.90;99.90
27848;DHT22;15212;48.830;8.730;2022-09-09T16:34:26;15.00;99.90
27848;DHT22;15212;48.830;8.730;2022-09-09T16:36:55;15.10;99.90
27848;DHT22;15212;48.830;8.730;2022-09-09T16:39:23;15.10;99.90
27848;DHT22;15212;48.830;8.730;2022-09-09T16:41:52;15.10;99.90
27848;DHT22;15212;48.830;8.730;2022-09-09T16:44:20;15.10;99.90
27848;DHT22;15212;48.830;8.730;2022-09-09T16:46:49;15.10;99.90
27848;DHT22;15212;48.830;8.730;2022-09-09T16:49:19;14.90;99.90
27848;DHT22;15212;48.830;8.730;2022-09-09T16:51:49;14.90;99.90
27848;DHT22;15212;48.830;8.730;2022-09-09T16:54:20;14.80;99.90
27848;DHT22;15212;48.830;8.730;2022-09-09T16:56:49;14.80;99.90
27848;DHT22;15212;48.830;8.730;2022-09-09T16:59:20;14.70;99.90
27848;DHT22;15212;48.830;8.730;2022-09-09T17:01:51;14.60;99.90
27848;DHT22;15212;48.830;8.730;2022-09-09T17:04:22;14.60;99.90
27848;DHT22;15212;48.830;8.730;2022-09-09T17:06:54;14.60;99.90
27848;DHT22;15212;48.830;8.730;2022-09-09T17:09:24;14.50;99.90
27848;DHT22;15212;48.830;8.730;2022-09-09T17:11:55;14.50;99.90
27848;DHT22;15212;48.830;8.730;2022-09-09T17:14:23;14.40;99.90
27848;DHT22;15212;48.830;8.730;2022-09-09T17:16:52;14.40;99.90
27848;DHT22;15212;48.830;8.730;2022-09-09T17:19:20;14.40;99.90
27848;DHT22;15212;48.830;8.730;2022-09-09T17:21:48;14.40;99.90
27848;DHT22;15212;48.830;8.730;2022-09-09T17:24:17;14.30;99.90